Time;durP1;ratioP1;P1;durP2;ratioP2;P2;SDS_P1;SDS_P2;PMS_P1;PMS_P2;Temp;Humidity;BMP_temperature;BMP_pressure;BME280_temperature;BME280_humidity;BME280_pressure;Samples;Min_cycle;Max_cycle;Signal;HPM_P1;HPM_P2
2022/11/04 00:01:46;;;;;;;2.80;1.40;;;15.20;99.90;;;;;;7741046;77;26847;-55
2022/11/04 00:42:51;;;;;;;2.00;1.53;;;15.20;99.90;;;;;;7734211;75;26299;-56
2022/11/04 00:52:59;;;;;;;1.53;1.00;;;15.10;99.90;;;;;;7739421;77;26601;-53
2022/11/04 01:03:01;;;;;;;1.43;1.30;;;15.20;99.90;;;;;;7745146;77;26322;-56
2022/11/04 01:13:04;;;;;;;2.00;1.20;;;15.20;99.90;;;;;;7738326;77;26249;-56
2022/11/04 01:23:06;;;;;;;1.57;1.10;;;15.20;99.90;;;;;;7738837;77;26820;-55
2022/11/04 01:33:09;;;;;;;2.17;1.07;;;15.10;99.90;;;;;;7722590;77;26284;-56
2022/11/04 01:43:16;;;;;;;1.57;1.27;;;15.10;99.90;;;;;;7740112;75;26793;-56
2022/11/04 01:53:22;;;;;;;1.00;0.90;;;15.10;99.90;;;;;;7747382;77;26280;-56
2022/11/04 02:03:28;;;;;;;0.80;0.80;;;15.10;99.90;;;;;;7741241;75;26372;-54
2022/11/04 02:13:32;;;;;;;0.57;0.57;;;15.10;99.90;;;;;;7726257;75;26248;-57
2022/11/04 02:23:44;;;;;;;2.47;1.13;;;15.10;99.90;;;;;;7738994;76;26334;-57
2022/11/04 02:34:23;;;;;;;0.73;0.60;;;15.00;99.90;;;;;;7728104;75;26342;-57
2022/11/04 02:44:31;;;;;;;1.07;0.90;;;15.00;99.90;;;;;;7485610;75;26372;-57
2022/11/04 02:54:40;;;;;;;1.57;0.80;;;15.00;99.90;;;;;;7743331;76;26244;-53
2022/11/04 03:04:45;;;;;;;0.50;0.50;;;15.00;99.90;;;;;;7739243;77;26272;-54
2022/11/04 03:14:54;;;;;;;1.50;0.80;;;15.00;99.90;;;;;;7747363;77;26711;-57
2022/11/04 03:24:56;;;;;;;1.33;0.80;;;15.00;99.90;;;;;;7738496;77;26335;-55
2022/11/04 03:34:59;;;;;;;1.90;0.60;;;15.00;99.90;;;;;;7738549;75;26323;-56
2022/11/04 03:45:02;;;;;;;0.77;0.60;;;14.90;99.90;;;;;;7736275;75;27043;-57
2022/11/04 03:55:08;;;;;;;2.20;0.80;;;14.90;99.90;;;;;;7743010;77;26851;-56
2022/11/04 04:05:14;;;;;;;2.00;0.77;;;14.90;99.90;;;;;;7732647;75;26288;-57
2022/11/04 04:15:19;;;;;;;1.23;0.83;;;14.90;99.90;;;;;;7737428;75;26367;-56
2022/11/04 04:35:54;;;;;;;1.30;0.80;;;14.90;99.90;;;;;;7742319;77;26773;-56
2022/11/04 04:45:57;;;;;;;3.20;1.00;;;14.90;99.90;;;;;;7736707;75;26338;-55
2022/11/04 04:56:00;;;;;;;1.33;0.80;;;14.90;99.90;;;;;;7736683;77;26244;-55
2022/11/04 05:06:02;;;;;;;0.70;0.70;;;14.90;99.90;;;;;;7739323;75;26299;-55
2022/11/04 05:16:07;;;;;;;2.30;0.73;;;14.90;99.90;;;;;;7746628;77;26252;-55
2022/11/04 05:26:10;;;;;;;1.23;0.87;;;14.80;99.90;;;;;;7746953;76;26255;-57
2022/11/04 05:36:15;;;;;;;1.50;0.87;;;14.80;99.90;;;;;;7740846;77;26355;-55
2022/11/04 05:46:17;;;;;;;3.47;1.60;;;14.80;99.90;;;;;;7737391;77;26324;-56
2022/11/04 05:56:20;;;;;;;3.03;1.93;;;14.80;99.90;;;;;;7740716;77;26292;-56
2022/11/04 06:06:24;;;;;;;2.40;0.83;;;14.80;99.90;;;;;;7741115;77;26323;-56
2022/11/04 06:16:27;;;;;;;2.53;0.90;;;14.70;99.90;;;;;;7731887;75;26292;-56
2022/11/04 06:26:33;;;;;;;3.70;1.60;;;14.70;99.90;;;;;;7747101;77;26279;-58
2022/11/04 06:36:35;;;;;;;3.47;0.93;;;14.70;99.90;;;;;;7722950;75;26284;-53
2022/11/04 06:46:42;;;;;;;1.83;0.73;;;14.70;99.90;;;;;;7746806;77;27259;-55
2022/11/04 06:56:46;;;;;;;0.83;0.80;;;14.70;99.90;;;;;;7746999;77;26256;-57
2022/11/04 07:06:48;;;;;;;3.37;1.23;;;14.70;99.90;;;;;;7736237;77;26292;-56
2022/11/04 07:16:51;;;;;;;4.10;0.80;;;14.70;99.90;;;;;;7731795;77;26765;-56
2022/11/04 07:26:55;;;;;;;6.70;1.30;;;14.70;99.90;;;;;;7736374;77;26280;-57
2022/11/04 07:36:57;;;;;;;2.47;0.93;;;14.70;99.90;;;;;;7742475;77;26249;-55
2022/11/04 07:47:00;;;;;;;3.43;0.87;;;14.70;99.90;;;;;;7734514;75;26423;-55
2022/11/04 07:57:02;;;;;;;2.00;1.03;;;14.70;99.90;;;;;;7744285;75;26249;-56
2022/11/04 08:07:06;;;;;;;3.23;1.27;;;14.70;99.90;;;;;;7740984;77;26785;-58
2022/11/04 08:17:09;;;;;;;4.60;1.70;;;14.70;99.90;;;;;;7736888;77;26353;-57
2022/11/04 08:27:12;;;;;;;4.40;1.10;;;14.70;99.90;;;;;;7742516;75;26847;-57
2022/11/04 08:37:15;;;;;;;2.57;1.13;;;14.70;99.90;;;;;;7735957;77;26304;-56
2022/11/04 08:47:18;;;;;;;3.03;1.10;;;14.80;99.90;;;;;;7740709;75;26299;-55
2022/11/04 08:57:21;;;;;;;1.70;1.10;;;14.80;99.90;;;;;;7741264;77;26315;-55
2022/11/04 09:07:23;;;;;;;5.40;1.33;;;14.80;99.90;;;;;;7740342;77;26296;-55
2022/11/04 09:17:25;;;;;;;3.37;1.23;;;14.80;99.90;;;;;;7740805;77;26304;-56
2022/11/04 09:27:28;;;;;;;3.67;1.20;;;14.80;99.90;;;;;;7725844;77;26979;-56
2022/11/04 09:37:31;;;;;;;6.07;1.57;;;14.80;99.90;;;;;;7724838;75;26332;-56
2022/11/04 09:47:34;;;;;;;2.40;1.13;;;14.80;99.90;;;;;;7735282;75;26389;-56
2022/11/04 09:57:38;;;;;;;1.60;1.13;;;14.90;99.90;;;;;;7727441;77;26382;-55
2022/11/04 10:08:08;;;;;;;3.70;1.40;;;14.90;99.90;;;;;;7724571;77;26262;-53
2022/11/04 10:18:25;;;;;;;1.47;0.83;;;14.90;99.90;;;;;;7718850;76;26297;-54
2022/11/04 10:28:34;;;;;;;4.80;1.30;;;14.90;99.90;;;;;;7731160;76;26381;-55
2022/11/04 10:38:49;;;;;;;3.07;1.10;;;14.90;99.90;;;;;;7730101;76;26374;-58
2022/11/04 10:49:03;;;;;;;5.27;1.67;;;14.90;99.90;;;;;;7735361;76;26374;-54
2022/11/04 10:59:22;;;;;;;2.70;1.20;;;14.90;99.90;;;;;;7721505;75;26766;-55
2022/11/04 11:09:28;;;;;;;2.53;1.10;;;15.00;99.90;;;;;;7740362;76;26379;-54
2022/11/04 11:19:34;;;;;;;8.53;2.00;;;15.00;99.90;;;;;;7746400;77;26381;-56
2022/11/04 11:29:41;;;;;;;1.83;1.03;;;15.00;99.90;;;;;;7723230;75;26726;-54
2022/11/04 11:39:43;;;;;;;3.93;0.90;;;15.00;99.90;;;;;;7740301;76;26366;-56
2022/11/04 11:49:45;;;;;;;6.30;1.33;;;15.00;99.90;;;;;;7729711;77;26833;-55
2022/11/04 11:59:57;;;;;;;3.27;1.23;;;15.10;99.90;;;;;;7741665;77;26323;-53
2022/11/04 12:10:08;;;;;;;2.40;1.03;;;15.10;99.90;;;;;;7739502;76;26316;-55
2022/11/04 12:20:35;;;;;;;4.30;1.17;;;15.10;99.90;;;;;;7737997;76;26296;-55
2022/11/04 12:31:07;;;;;;;5.30;1.33;;;15.20;99.90;;;;;;7740036;77;26851;-54
2022/11/04 12:41:12;;;;;;;3.63;1.10;;;15.20;99.90;;;;;;7731954;77;27133;-52
2022/11/04 12:51:32;;;;;;;2.60;1.00;;;15.30;99.90;;;;;;7729278;75;26330;-54
2022/11/04 13:01:47;;;;;;;4.13;1.37;;;15.30;99.90;;;;;;7746603;77;26350;-57
2022/11/04 13:11:52;;;;;;;1.57;0.70;;;15.40;99.90;;;;;;7745996;77;26821;-56
2022/11/04 13:21:58;;;;;;;2.73;1.03;;;15.40;99.90;;;;;;7743806;77;26334;-57
2022/11/04 13:32:16;;;;;;;4.03;0.93;;;15.40;99.90;;;;;;7741892;77;26726;-52
2022/11/04 13:42:30;;;;;;;2.10;1.07;;;15.40;99.90;;;;;;7745063;76;26323;-53
2022/11/04 13:52:35;;;;;;;2.27;1.03;;;15.40;99.90;;;;;;7735346;76;26737;-55
2022/11/04 14:02:42;;;;;;;1.27;0.70;;;15.40;99.90;;;;;;7746770;77;26241;-53
2022/11/04 14:12:45;;;;;;;2.40;1.20;;;15.40;99.90;;;;;;7735371;77;26304;-55
2022/11/04 14:22:53;;;;;;;1.60;0.80;;;15.40;99.90;;;;;;7746403;76;26730;-55
2022/11/04 14:32:58;;;;;;;1.70;0.70;;;15.40;99.90;;;;;;7742808;77;26240;-57
2022/11/04 14:43:01;;;;;;;4.97;1.70;;;15.30;99.90;;;;;;7746406;76;26367;-55
2022/11/04 14:53:05;;;;;;;3.00;0.90;;;15.30;99.90;;;;;;7750929;75;26265;-57
2022/11/04 15:03:22;;;;;;;2.30;0.90;;;15.30;99.90;;;;;;7738471;77;26319;-55
2022/11/04 15:13:24;;;;;;;1.33;0.70;;;15.30;99.90;;;;;;7746559;77;26276;-56
2022/11/04 15:23:33;;;;;;;3.07;1.30;;;15.30;99.90;;;;;;7726855;75;26783;-56
2022/11/04 15:33:41;;;;;;;1.00;0.90;;;15.30;99.90;;;;;;7727375;75;26865;-56
2022/11/04 15:43:44;;;;;;;2.83;0.93;;;15.30;99.90;;;;;;7739141;77;26236;-54
2022/11/04 15:53:53;;;;;;;1.20;0.83;;;15.30;99.90;;;;;;7739089;75;26280;-54
2022/11/04 16:03:58;;;;;;;2.17;0.80;;;15.20;99.90;;;;;;7735536;75;26358;-53
2022/11/04 16:14:21;;;;;;;2.10;1.10;;;15.20;99.90;;;;;;7730378;76;26288;-54
2022/11/04 16:24:29;;;;;;;2.83;0.87;;;15.20;99.90;;;;;;7657027;77;26304;-56
2022/11/04 16:34:31;;;;;;;1.37;1.00;;;15.20;99.90;;;;;;7735477;77;26296;-57
2022/11/04 16:44:34;;;;;;;2.03;1.20;;;15.20;99.90;;;;;;7739555;77;26757;-55
2022/11/04 16:54:37;;;;;;;1.63;0.93;;;15.10;99.90;;;;;;7740620;77;26263;-55
2022/11/04 17:04:39;;;;;;;2.17;1.27;;;15.10;99.90;;;;;;7737210;76;26295;-54
2022/11/04 17:14:42;;;;;;;4.77;2.20;;;15.10;99.90;;;;;;7746570;77;26760;-53
2022/11/04 17:24:44;;;;;;;2.53;1.27;;;15.10;99.90;;;;;;7743777;75;26287;-54
2022/11/04 17:34:47;;;;;;;1.93;1.10;;;15.10;99.90;;;;;;7743144;76;26256;-54
2022/11/04 17:44:49;;;;;;;2.50;1.50;;;15.00;99.90;;;;;;7746338;75;26291;-55
2022/11/04 17:54:52;;;;;;;1.53;1.10;;;15.00;99.90;;;;;;7746320;76;26828;-55
2022/11/04 18:04:54;;;;;;;2.37;1.30;;;15.00;99.90;;;;;;7746572;76;26276;-54
2022/11/04 18:14:57;;;;;;;1.70;1.00;;;15.00;99.90;;;;;;7742964;76;26322;-55
2022/11/04 18:24:59;;;;;;;2.47;1.27;;;15.00;99.90;;;;;;7746849;76;26373;-54
2022/11/04 18:35:02;;;;;;;2.27;1.20;;;15.00;99.90;;;;;;7742377;75;26245;-57
2022/11/04 18:45:05;;;;;;;1.53;1.00;;;15.00;99.90;;;;;;7742234;77;26292;-53
2022/11/04 18:55:08;;;;;;;2.57;0.80;;;14.90;99.90;;;;;;7740777;77;26375;-56
2022/11/04 19:05:10;;;;;;;2.47;1.70;;;14.90;99.90;;;;;;7719945;75;26304;-55
2022/11/04 19:15:29;;;;;;;2.87;1.80;;;14.90;99.90;;;;;;7735360;75;26284;-55
2022/11/04 19:25:31;;;;;;;7.60;2.20;;;14.90;99.90;;;;;;7737213;77;26813;-56
2022/11/04 19:35:34;;;;;;;4.13;1.93;;;14.90;99.90;;;;;;7736814;76;26308;-55
2022/11/04 19:45:41;;;;;;;2.47;1.70;;;14.90;99.90;;;;;;7732179;77;26323;-55
2022/11/04 19:55:53;;;;;;;3.03;2.10;;;14.90;99.90;;;;;;7729299;77;27347;-57
2022/11/04 20:05:55;;;;;;;3.10;1.73;;;14.90;99.90;;;;;;7739606;76;26401;-53
2022/11/04 20:15:58;;;;;;;4.90;1.90;;;14.80;99.90;;;;;;7739769;75;26311;-53
2022/11/04 20:26:10;;;;;;;3.13;1.70;;;14.80;99.90;;;;;;7755633;75;26741;-55
2022/11/04 20:36:14;;;;;;;4.17;1.70;;;14.80;99.90;;;;;;7724443;76;26743;-54
2022/11/04 20:46:20;;;;;;;2.63;1.50;;;14.80;99.90;;;;;;7727499;76;26372;-55
2022/11/04 20:56:24;;;;;;;2.57;1.57;;;14.80;99.90;;;;;;7723962;75;26271;-54
2022/11/04 21:06:27;;;;;;;2.23;1.57;;;14.80;99.90;;;;;;7724711;76;27191;-55
2022/11/04 21:16:30;;;;;;;3.47;1.97;;;14.80;99.90;;;;;;7731346;76;26715;-60
2022/11/04 21:26:35;;;;;;;2.63;1.70;;;14.70;99.90;;;;;;7725602;76;26408;-54
2022/11/04 21:36:38;;;;;;;1.63;1.40;;;14.70;99.90;;;;;;7721263;76;26280;-52
2022/11/04 21:46:41;;;;;;;2.30;1.47;;;14.70;99.90;;;;;;7738136;76;26717;-55
2022/11/04 21:56:44;;;;;;;4.03;2.30;;;14.70;99.90;;;;;;7720829;76;26310;-56
2022/11/04 22:06:46;;;;;;;3.73;2.37;;;14.70;99.90;;;;;;7711825;76;26315;-56
2022/11/04 22:16:49;;;;;;;4.63;2.33;;;14.70;99.90;;;;;;7736124;76;27103;-57
2022/11/04 22:26:51;;;;;;;4.00;2.20;;;14.60;99.90;;;;;;7744174;75;26248;-56
2022/11/04 22:36:54;;;;;;;4.30;2.50;;;14.70;99.90;;;;;;7745298;75;26283;-56
2022/11/04 22:46:57;;;;;;;4.67;2.40;;;14.60;99.90;;;;;;7751098;76;26267;-55
2022/11/04 22:56:59;;;;;;;4.00;2.47;;;14.70;99.90;;;;;;7749817;76;26276;-56
2022/11/04 23:07:02;;;;;;;4.63;2.47;;;14.60;99.90;;;;;;7753527;75;26315;-56
2022/11/04 23:38:03;;;;;;;6.10;2.97;;;14.60;99.90;;;;;;7740286;76;26455;-56
